sensor_id;sensor_type;location;lat;lon;timestamp;P1;durP1;ratioP1;P2;durP2;ratioP2
54139;SDS011;40046;53.254;5.900;2023-01-25T00:00:20;27.75;;;19.33;;
54139;SDS011;40046;53.254;5.900;2023-01-25T00:02:46;30.35;;;18.48;;
54139;SDS011;40046;53.254;5.900;2023-01-25T00:05:12;24.35;;;18.00;;
54139;SDS011;40046;53.254;5.900;2023-01-25T00:07:39;27.50;;;18.02;;
54139;SDS011;40046;53.254;5.900;2023-01-25T00:10:05;24.50;;;17.30;;
54139;SDS011;40046;53.254;5.900;2023-01-25T00:12:31;25.75;;;17.63;;
54139;SDS011;40046;53.254;5.900;2023-01-25T00:14:57;26.58;;;17.25;;
54139;SDS011;40046;53.254;5.900;2023-01-25T00:17:23;27.85;;;19.23;;
54139;SDS011;40046;53.254;5.900;2023-01-25T00:19:49;25.88;;;18.70;;
54139;SDS011;40046;53.254;5.900;2023-01-25T00:22:16;28.58;;;18.80;;
54139;SDS011;40046;53.254;5.900;2023-01-25T00:24:42;24.25;;;17.05;;
54139;SDS011;40046;53.254;5.900;2023-01-25T00:27:08;27.27;;;18.05;;
54139;SDS011;40046;53.254;5.900;2023-01-25T00:29:34;26.65;;;19.38;;
54139;SDS011;40046;53.254;5.900;2023-01-25T00:36:54;31.52;;;19.83;;
54139;SDS011;40046;53.254;5.900;2023-01-25T00:39:21;29.75;;;19.90;;
54139;SDS011;40046;53.254;5.900;2023-01-25T00:41:47;29.80;;;20.58;;
54139;SDS011;40046;53.254;5.900;2023-01-25T00:44:13;27.83;;;19.83;;
54139;SDS011;40046;53.254;5.900;2023-01-25T00:46:40;28.77;;;20.35;;
54139;SDS011;40046;53.254;5.900;2023-01-25T00:49:06;30.25;;;21.48;;
54139;SDS011;40046;53.254;5.900;2023-01-25T00:51:32;33.88;;;20.58;;
54139;SDS011;40046;53.254;5.900;2023-01-25T00:53:58;31.70;;;19.20;;
54139;SDS011;40046;53.254;5.900;2023-01-25T00:56:24;28.58;;;20.05;;
54139;SDS011;40046;53.254;5.900;2023-01-25T00:58:51;28.42;;;20.00;;
54139;SDS011;40046;53.254;5.900;2023-01-25T01:01:18;28.35;;;20.27;;
54139;SDS011;40046;53.254;5.900;2023-01-25T01:03:44;31.38;;;19.95;;
54139;SDS011;40046;53.254;5.900;2023-01-25T01:06:12;30.40;;;20.58;;
54139;SDS011;40046;53.254;5.900;2023-01-25T01:08:39;29.20;;;20.15;;
54139;SDS011;40046;53.254;5.900;2023-01-25T01:11:07;28.27;;;18.13;;
54139;SDS011;40046;53.254;5.900;2023-01-25T01:13:34;31.60;;;20.48;;
54139;SDS011;40046;53.254;5.900;2023-01-25T01:16:01;29.95;;;20.65;;
54139;SDS011;40046;53.254;5.900;2023-01-25T01:18:28;32.10;;;20.80;;
54139;SDS011;40046;53.254;5.900;2023-01-25T01:20:58;28.30;;;19.52;;
54139;SDS011;40046;53.254;5.900;2023-01-25T01:23:24;29.70;;;19.88;;
54139;SDS011;40046;53.254;5.900;2023-01-25T01:25:50;31.92;;;21.17;;
54139;SDS011;40046;53.254;5.900;2023-01-25T01:28:16;30.30;;;19.45;;
54139;SDS011;40046;53.254;5.900;2023-01-25T01:30:42;27.88;;;17.95;;
54139;SDS011;40046;53.254;5.900;2023-01-25T01:33:09;30.40;;;21.00;;
54139;SDS011;40046;53.254;5.900;2023-01-25T01:35:35;27.75;;;17.85;;
54139;SDS011;40046;53.254;5.900;2023-01-25T01:38:01;29.73;;;20.98;;
54139;SDS011;40046;53.254;5.900;2023-01-25T01:40:27;27.27;;;19.77;;
54139;SDS011;40046;53.254;5.900;2023-01-25T01:43:02;28.60;;;19.35;;
54139;SDS011;40046;53.254;5.900;2023-01-25T01:50:44;28.35;;;18.90;;
54139;SDS011;40046;53.254;5.900;2023-01-25T01:53:11;31.58;;;20.65;;
54139;SDS011;40046;53.254;5.900;2023-01-25T01:55:37;27.38;;;19.02;;
54139;SDS011;40046;53.254;5.900;2023-01-25T01:58:04;31.33;;;19.90;;
54139;SDS011;40046;53.254;5.900;2023-01-25T02:00:33;30.38;;;20.48;;
54139;SDS011;40046;53.254;5.900;2023-01-25T02:02:59;29.63;;;20.88;;
54139;SDS011;40046;53.254;5.900;2023-01-25T02:05:30;31.98;;;20.25;;
54139;SDS011;40046;53.254;5.900;2023-01-25T02:08:01;30.13;;;20.92;;
54139;SDS011;40046;53.254;5.900;2023-01-25T02:10:30;35.60;;;22.38;;
54139;SDS011;40046;53.254;5.900;2023-01-25T02:12:56;31.40;;;21.38;;
54139;SDS011;40046;53.254;5.900;2023-01-25T02:15:26;31.63;;;21.88;;
54139;SDS011;40046;53.254;5.900;2023-01-25T02:17:53;31.75;;;20.52;;
54139;SDS011;40046;53.254;5.900;2023-01-25T02:23:05;32.55;;;22.20;;
54139;SDS011;40046;53.254;5.900;2023-01-25T02:30:38;34.47;;;22.20;;
54139;SDS011;40046;53.254;5.900;2023-01-25T02:33:04;34.95;;;23.13;;
54139;SDS011;40046;53.254;5.900;2023-01-25T02:35:41;31.77;;;22.27;;
54139;SDS011;40046;53.254;5.900;2023-01-25T02:38:08;33.95;;;23.42;;
54139;SDS011;40046;53.254;5.900;2023-01-25T02:40:35;34.25;;;22.83;;
54139;SDS011;40046;53.254;5.900;2023-01-25T02:43:05;36.70;;;22.80;;
54139;SDS011;40046;53.254;5.900;2023-01-25T02:45:33;35.05;;;23.98;;
54139;SDS011;40046;53.254;5.900;2023-01-25T02:47:59;38.38;;;25.77;;
54139;SDS011;40046;53.254;5.900;2023-01-25T02:50:25;36.28;;;24.35;;
54139;SDS011;40046;53.254;5.900;2023-01-25T02:52:52;35.45;;;24.98;;
54139;SDS011;40046;53.254;5.900;2023-01-25T02:55:18;39.22;;;26.40;;
54139;SDS011;40046;53.254;5.900;2023-01-25T02:57:45;35.05;;;23.85;;
54139;SDS011;40046;53.254;5.900;2023-01-25T03:00:13;39.70;;;24.70;;
54139;SDS011;40046;53.254;5.900;2023-01-25T03:02:40;42.13;;;26.52;;
54139;SDS011;40046;53.254;5.900;2023-01-25T03:05:06;42.92;;;27.65;;
54139;SDS011;40046;53.254;5.900;2023-01-25T03:07:32;41.75;;;27.08;;
54139;SDS011;40046;53.254;5.900;2023-01-25T03:09:59;40.33;;;26.20;;
54139;SDS011;40046;53.254;5.900;2023-01-25T03:12:25;43.80;;;27.50;;
54139;SDS011;40046;53.254;5.900;2023-01-25T03:14:52;42.40;;;28.02;;
54139;SDS011;40046;53.254;5.900;2023-01-25T03:17:18;44.33;;;28.60;;
54139;SDS011;40046;53.254;5.900;2023-01-25T03:19:45;47.50;;;28.10;;
54139;SDS011;40046;53.254;5.900;2023-01-25T03:22:11;49.42;;;29.98;;
54139;SDS011;40046;53.254;5.900;2023-01-25T03:24:37;46.92;;;30.15;;
54139;SDS011;40046;53.254;5.900;2023-01-25T03:27:05;53.33;;;31.98;;
54139;SDS011;40046;53.254;5.900;2023-01-25T03:30:05;44.88;;;28.80;;
54139;SDS011;40046;53.254;5.900;2023-01-25T03:32:32;49.75;;;31.50;;
54139;SDS011;40046;53.254;5.900;2023-01-25T03:35:05;47.20;;;30.45;;
54139;SDS011;40046;53.254;5.900;2023-01-25T03:37:32;51.15;;;30.38;;
54139;SDS011;40046;53.254;5.900;2023-01-25T03:39:58;48.03;;;30.75;;
54139;SDS011;40046;53.254;5.900;2023-01-25T03:42:24;43.83;;;28.23;;
54139;SDS011;40046;53.254;5.900;2023-01-25T03:44:55;49.75;;;31.15;;
54139;SDS011;40046;53.254;5.900;2023-01-25T03:47:21;47.13;;;29.67;;
54139;SDS011;40046;53.254;5.900;2023-01-25T03:49:47;52.25;;;30.33;;
54139;SDS011;40046;53.254;5.900;2023-01-25T03:52:17;47.22;;;30.00;;
54139;SDS011;40046;53.254;5.900;2023-01-25T03:54:44;46.35;;;28.85;;
54139;SDS011;40046;53.254;5.900;2023-01-25T03:57:11;47.88;;;29.08;;
54139;SDS011;40046;53.254;5.900;2023-01-25T03:59:49;44.70;;;28.20;;
54139;SDS011;40046;53.254;5.900;2023-01-25T04:02:15;48.00;;;29.35;;
54139;SDS011;40046;53.254;5.900;2023-01-25T04:04:41;47.90;;;29.48;;
54139;SDS011;40046;53.254;5.900;2023-01-25T04:07:08;49.65;;;31.00;;
54139;SDS011;40046;53.254;5.900;2023-01-25T04:09:37;49.25;;;30.65;;
54139;SDS011;40046;53.254;5.900;2023-01-25T04:12:05;51.08;;;29.48;;
54139;SDS011;40046;53.254;5.900;2023-01-25T04:14:32;49.63;;;31.83;;
54139;SDS011;40046;53.254;5.900;2023-01-25T04:17:02;50.38;;;30.30;;
54139;SDS011;40046;53.254;5.900;2023-01-25T04:19:55;51.42;;;30.38;;
54139;SDS011;40046;53.254;5.900;2023-01-25T04:22:26;52.67;;;30.33;;
54139;SDS011;40046;53.254;5.900;2023-01-25T04:24:55;47.38;;;29.45;;
54139;SDS011;40046;53.254;5.900;2023-01-25T04:27:21;46.03;;;29.30;;
54139;SDS011;40046;53.254;5.900;2023-01-25T04:30:03;47.38;;;30.95;;
54139;SDS011;40046;53.254;5.900;2023-01-25T04:32:35;50.67;;;30.42;;
54139;SDS011;40046;53.254;5.900;2023-01-25T04:35:06;52.95;;;31.85;;
54139;SDS011;40046;53.254;5.900;2023-01-25T04:37:34;48.63;;;30.33;;
54139;SDS011;40046;53.254;5.900;2023-01-25T04:40:01;46.83;;;28.67;;
54139;SDS011;40046;53.254;5.900;2023-01-25T04:42:32;52.80;;;29.83;;
54139;SDS011;40046;53.254;5.900;2023-01-25T04:44:58;49.20;;;29.92;;
54139;SDS011;40046;53.254;5.900;2023-01-25T04:47:25;49.63;;;29.83;;
54139;SDS011;40046;53.254;5.900;2023-01-25T04:49:51;49.67;;;31.20;;
54139;SDS011;40046;53.254;5.900;2023-01-25T04:52:21;52.97;;;31.70;;
54139;SDS011;40046;53.254;5.900;2023-01-25T04:54:48;47.35;;;30.85;;
54139;SDS011;40046;53.254;5.900;2023-01-25T04:57:14;51.25;;;32.55;;
54139;SDS011;40046;53.254;5.900;2023-01-25T04:59:46;53.33;;;30.63;;
54139;SDS011;40046;53.254;5.900;2023-01-25T05:02:12;52.38;;;31.17;;
54139;SDS011;40046;53.254;5.900;2023-01-25T05:04:39;48.72;;;31.52;;
54139;SDS011;40046;53.254;5.900;2023-01-25T05:07:06;54.05;;;32.92;;
54139;SDS011;40046;53.254;5.900;2023-01-25T05:09:32;48.55;;;30.00;;
54139;SDS011;40046;53.254;5.900;2023-01-25T05:11:58;48.33;;;30.80;;
54139;SDS011;40046;53.254;5.900;2023-01-25T05:14:33;54.08;;;33.17;;
54139;SDS011;40046;53.254;5.900;2023-01-25T05:17:00;53.03;;;31.58;;
54139;SDS011;40046;53.254;5.900;2023-01-25T05:19:26;50.78;;;31.67;;
54139;SDS011;40046;53.254;5.900;2023-01-25T05:21:57;47.63;;;28.20;;
54139;SDS011;40046;53.254;5.900;2023-01-25T05:24:29;51.08;;;29.65;;
54139;SDS011;40046;53.254;5.900;2023-01-25T05:26:57;50.72;;;30.02;;
54139;SDS011;40046;53.254;5.900;2023-01-25T05:30:06;46.55;;;29.20;;
54139;SDS011;40046;53.254;5.900;2023-01-25T05:32:41;51.65;;;29.83;;
54139;SDS011;40046;53.254;5.900;2023-01-25T05:35:07;50.03;;;29.88;;
54139;SDS011;40046;53.254;5.900;2023-01-25T05:37:34;46.95;;;28.73;;
54139;SDS011;40046;53.254;5.900;2023-01-25T05:40:04;47.92;;;29.67;;
54139;SDS011;40046;53.254;5.900;2023-01-25T05:42:34;47.90;;;29.15;;
54139;SDS011;40046;53.254;5.900;2023-01-25T05:45:03;52.70;;;31.83;;
54139;SDS011;40046;53.254;5.900;2023-01-25T05:47:30;48.10;;;28.80;;
54139;SDS011;40046;53.254;5.900;2023-01-25T05:49:56;46.67;;;28.27;;
54139;SDS011;40046;53.254;5.900;2023-01-25T05:52:34;45.85;;;29.45;;
54139;SDS011;40046;53.254;5.900;2023-01-25T05:55:00;46.60;;;27.13;;
54139;SDS011;40046;53.254;5.900;2023-01-25T05:57:27;48.22;;;30.02;;
54139;SDS011;40046;53.254;5.900;2023-01-25T05:59:53;48.55;;;29.58;;
54139;SDS011;40046;53.254;5.900;2023-01-25T06:02:20;42.17;;;26.27;;
54139;SDS011;40046;53.254;5.900;2023-01-25T06:04:46;44.90;;;29.45;;
54139;SDS011;40046;53.254;5.900;2023-01-25T06:07:13;41.25;;;27.00;;
54139;SDS011;40046;53.254;5.900;2023-01-25T06:09:40;44.20;;;27.23;;
54139;SDS011;40046;53.254;5.900;2023-01-25T06:12:06;42.40;;;27.42;;
54139;SDS011;40046;53.254;5.900;2023-01-25T06:14:32;45.47;;;28.05;;
54139;SDS011;40046;53.254;5.900;2023-01-25T06:17:00;44.78;;;28.15;;
54139;SDS011;40046;53.254;5.900;2023-01-25T06:19:45;41.35;;;27.23;;
54139;SDS011;40046;53.254;5.900;2023-01-25T06:22:37;45.05;;;30.08;;
54139;SDS011;40046;53.254;5.900;2023-01-25T06:25:03;43.72;;;28.00;;
54139;SDS011;40046;53.254;5.900;2023-01-25T06:27:30;43.97;;;30.20;;
54139;SDS011;40046;53.254;5.900;2023-01-25T06:29:56;46.60;;;28.90;;
54139;SDS011;40046;53.254;5.900;2023-01-25T06:32:22;45.72;;;29.55;;
54139;SDS011;40046;53.254;5.900;2023-01-25T06:34:50;44.65;;;28.92;;
54139;SDS011;40046;53.254;5.900;2023-01-25T06:37:19;46.30;;;30.60;;
54139;SDS011;40046;53.254;5.900;2023-01-25T06:39:46;50.33;;;30.83;;
54139;SDS011;40046;53.254;5.900;2023-01-25T06:42:13;54.53;;;34.55;;
54139;SDS011;40046;53.254;5.900;2023-01-25T06:44:39;48.40;;;30.73;;
54139;SDS011;40046;53.254;5.900;2023-01-25T06:47:07;46.53;;;31.13;;
54139;SDS011;40046;53.254;5.900;2023-01-25T06:49:33;47.53;;;31.08;;
54139;SDS011;40046;53.254;5.900;2023-01-25T06:51:59;49.97;;;31.10;;
54139;SDS011;40046;53.254;5.900;2023-01-25T06:54:25;48.28;;;30.50;;
54139;SDS011;40046;53.254;5.900;2023-01-25T06:56:52;49.55;;;29.52;;
54139;SDS011;40046;53.254;5.900;2023-01-25T06:59:18;51.08;;;32.55;;
54139;SDS011;40046;53.254;5.900;2023-01-25T07:01:44;48.65;;;32.17;;
54139;SDS011;40046;53.254;5.900;2023-01-25T07:04:11;49.20;;;32.30;;
54139;SDS011;40046;53.254;5.900;2023-01-25T07:06:37;44.03;;;30.42;;
54139;SDS011;40046;53.254;5.900;2023-01-25T07:09:07;45.55;;;29.17;;
54139;SDS011;40046;53.254;5.900;2023-01-25T07:11:34;45.95;;;30.70;;
54139;SDS011;40046;53.254;5.900;2023-01-25T07:14:00;48.83;;;32.20;;
54139;SDS011;40046;53.254;5.900;2023-01-25T07:16:26;45.72;;;30.17;;
54139;SDS011;40046;53.254;5.900;2023-01-25T07:18:53;49.15;;;31.05;;
54139;SDS011;40046;53.254;5.900;2023-01-25T07:21:20;49.50;;;32.92;;
54139;SDS011;40046;53.254;5.900;2023-01-25T07:23:47;50.30;;;32.90;;
54139;SDS011;40046;53.254;5.900;2023-01-25T07:28:43;45.35;;;30.52;;
54139;SDS011;40046;53.254;5.900;2023-01-25T07:31:10;48.03;;;31.70;;
54139;SDS011;40046;53.254;5.900;2023-01-25T07:33:36;49.65;;;31.50;;
54139;SDS011;40046;53.254;5.900;2023-01-25T07:36:03;49.70;;;30.63;;
54139;SDS011;40046;53.254;5.900;2023-01-25T07:38:30;45.75;;;28.42;;
54139;SDS011;40046;53.254;5.900;2023-01-25T07:40:56;43.58;;;26.15;;
54139;SDS011;40046;53.254;5.900;2023-01-25T07:43:22;43.15;;;25.13;;
54139;SDS011;40046;53.254;5.900;2023-01-25T07:45:50;43.28;;;27.23;;
54139;SDS011;40046;53.254;5.900;2023-01-25T07:48:17;44.40;;;25.25;;
54139;SDS011;40046;53.254;5.900;2023-01-25T07:50:43;42.35;;;27.20;;
54139;SDS011;40046;53.254;5.900;2023-01-25T07:53:33;43.67;;;25.67;;
54139;SDS011;40046;53.254;5.900;2023-01-25T07:55:59;43.63;;;26.27;;
54139;SDS011;40046;53.254;5.900;2023-01-25T07:58:25;41.78;;;26.00;;
54139;SDS011;40046;53.254;5.900;2023-01-25T08:00:51;42.03;;;25.30;;
54139;SDS011;40046;53.254;5.900;2023-01-25T08:03:17;39.25;;;25.92;;
54139;SDS011;40046;53.254;5.900;2023-01-25T08:05:46;47.88;;;27.92;;
54139;SDS011;40046;53.254;5.900;2023-01-25T08:08:13;45.15;;;28.13;;
54139;SDS011;40046;53.254;5.900;2023-01-25T08:10:39;43.65;;;26.13;;
54139;SDS011;40046;53.254;5.900;2023-01-25T08:13:05;46.55;;;28.00;;
54139;SDS011;40046;53.254;5.900;2023-01-25T08:15:32;46.40;;;25.98;;
54139;SDS011;40046;53.254;5.900;2023-01-25T08:17:58;45.63;;;27.70;;
54139;SDS011;40046;53.254;5.900;2023-01-25T08:20:24;47.70;;;29.05;;
54139;SDS011;40046;53.254;5.900;2023-01-25T08:22:51;48.25;;;30.30;;
54139;SDS011;40046;53.254;5.900;2023-01-25T08:25:17;55.90;;;30.88;;
54139;SDS011;40046;53.254;5.900;2023-01-25T08:27:44;56.33;;;30.00;;
54139;SDS011;40046;53.254;5.900;2023-01-25T08:30:10;47.70;;;29.58;;
54139;SDS011;40046;53.254;5.900;2023-01-25T08:32:37;53.20;;;27.65;;
54139;SDS011;40046;53.254;5.900;2023-01-25T08:35:03;49.20;;;29.38;;
54139;SDS011;40046;53.254;5.900;2023-01-25T08:37:29;47.00;;;26.90;;
54139;SDS011;40046;53.254;5.900;2023-01-25T08:39:56;45.85;;;27.25;;
54139;SDS011;40046;53.254;5.900;2023-01-25T08:42:24;43.38;;;26.67;;
54139;SDS011;40046;53.254;5.900;2023-01-25T08:44:50;45.28;;;27.02;;
54139;SDS011;40046;53.254;5.900;2023-01-25T08:47:16;42.95;;;25.63;;
54139;SDS011;40046;53.254;5.900;2023-01-25T08:49:42;46.33;;;27.98;;
54139;SDS011;40046;53.254;5.900;2023-01-25T08:52:08;51.63;;;29.23;;
54139;SDS011;40046;53.254;5.900;2023-01-25T08:54:38;46.33;;;27.95;;
54139;SDS011;40046;53.254;5.900;2023-01-25T08:57:07;53.45;;;30.13;;
54139;SDS011;40046;53.254;5.900;2023-01-25T08:59:33;49.88;;;28.17;;
54139;SDS011;40046;53.254;5.900;2023-01-25T09:01:59;48.25;;;29.20;;
54139;SDS011;40046;53.254;5.900;2023-01-25T09:04:25;47.60;;;26.50;;
54139;SDS011;40046;53.254;5.900;2023-01-25T09:06:53;44.38;;;26.00;;
54139;SDS011;40046;53.254;5.900;2023-01-25T09:09:19;49.15;;;25.50;;
54139;SDS011;40046;53.254;5.900;2023-01-25T09:11:49;42.95;;;26.52;;
54139;SDS011;40046;53.254;5.900;2023-01-25T09:14:15;48.45;;;26.48;;
54139;SDS011;40046;53.254;5.900;2023-01-25T09:16:41;54.10;;;28.30;;
54139;SDS011;40046;53.254;5.900;2023-01-25T09:19:08;49.20;;;26.95;;
54139;SDS011;40046;53.254;5.900;2023-01-25T09:21:34;45.78;;;24.65;;
54139;SDS011;40046;53.254;5.900;2023-01-25T09:24:01;46.55;;;24.20;;
54139;SDS011;40046;53.254;5.900;2023-01-25T09:26:28;42.25;;;23.58;;
54139;SDS011;40046;53.254;5.900;2023-01-25T09:28:54;45.47;;;22.88;;
54139;SDS011;40046;53.254;5.900;2023-01-25T09:31:20;47.88;;;24.27;;
54139;SDS011;40046;53.254;5.900;2023-01-25T09:34:25;46.33;;;23.15;;
54139;SDS011;40046;53.254;5.900;2023-01-25T09:36:51;46.08;;;23.58;;
54139;SDS011;40046;53.254;5.900;2023-01-25T09:39:17;51.47;;;26.52;;
54139;SDS011;40046;53.254;5.900;2023-01-25T09:54:36;51.72;;;28.20;;
54139;SDS011;40046;53.254;5.900;2023-01-25T09:57:06;51.88;;;26.58;;
54139;SDS011;40046;53.254;5.900;2023-01-25T09:59:38;53.92;;;27.23;;
54139;SDS011;40046;53.254;5.900;2023-01-25T10:02:12;59.13;;;28.75;;
54139;SDS011;40046;53.254;5.900;2023-01-25T10:04:43;57.05;;;27.27;;
54139;SDS011;40046;53.254;5.900;2023-01-25T10:07:30;60.42;;;27.55;;
54139;SDS011;40046;53.254;5.900;2023-01-25T10:10:00;66.10;;;28.17;;
54139;SDS011;40046;53.254;5.900;2023-01-25T10:12:39;57.45;;;25.90;;
54139;SDS011;40046;53.254;5.900;2023-01-25T10:15:18;57.03;;;27.60;;
54139;SDS011;40046;53.254;5.900;2023-01-25T10:17:45;65.00;;;28.20;;
54139;SDS011;40046;53.254;5.900;2023-01-25T10:20:22;63.25;;;27.98;;
54139;SDS011;40046;53.254;5.900;2023-01-25T10:22:51;64.70;;;28.02;;
54139;SDS011;40046;53.254;5.900;2023-01-25T10:25:20;71.40;;;29.35;;
54139;SDS011;40046;53.254;5.900;2023-01-25T10:33:15;67.13;;;28.48;;
54139;SDS011;40046;53.254;5.900;2023-01-25T10:35:44;69.75;;;29.95;;
54139;SDS011;40046;53.254;5.900;2023-01-25T10:38:25;63.90;;;29.20;;
54139;SDS011;40046;53.254;5.900;2023-01-25T10:43:27;66.60;;;29.05;;
54139;SDS011;40046;53.254;5.900;2023-01-25T10:45:54;70.40;;;28.83;;
54139;SDS011;40046;53.254;5.900;2023-01-25T10:48:25;67.70;;;29.92;;
54139;SDS011;40046;53.254;5.900;2023-01-25T10:50:53;67.70;;;30.90;;
54139;SDS011;40046;53.254;5.900;2023-01-25T10:53:33;66.75;;;31.08;;
54139;SDS011;40046;53.254;5.900;2023-01-25T11:01:02;71.03;;;30.05;;
54139;SDS011;40046;53.254;5.900;2023-01-25T11:06:03;70.22;;;28.13;;
54139;SDS011;40046;53.254;5.900;2023-01-25T11:10:56;70.13;;;30.45;;
54139;SDS011;40046;53.254;5.900;2023-01-25T11:18:26;79.90;;;34.85;;
54139;SDS011;40046;53.254;5.900;2023-01-25T11:23:28;76.32;;;34.00;;
54139;SDS011;40046;53.254;5.900;2023-01-25T11:26:09;75.18;;;31.13;;
54139;SDS011;40046;53.254;5.900;2023-01-25T11:28:36;83.00;;;33.17;;
54139;SDS011;40046;53.254;5.900;2023-01-25T11:31:02;79.60;;;36.40;;
54139;SDS011;40046;53.254;5.900;2023-01-25T11:33:28;77.68;;;33.95;;
54139;SDS011;40046;53.254;5.900;2023-01-25T11:38:55;79.43;;;33.95;;
54139;SDS011;40046;53.254;5.900;2023-01-25T11:41:31;82.45;;;35.63;;
54139;SDS011;40046;53.254;5.900;2023-01-25T11:49:24;79.07;;;36.40;;
54139;SDS011;40046;53.254;5.900;2023-01-25T11:52:05;85.57;;;38.72;;
54139;SDS011;40046;53.254;5.900;2023-01-25T11:59:51;86.63;;;37.70;;
54139;SDS011;40046;53.254;5.900;2023-01-25T12:08:15;79.05;;;35.60;;
54139;SDS011;40046;53.254;5.900;2023-01-25T12:10:44;77.20;;;37.22;;
54139;SDS011;40046;53.254;5.900;2023-01-25T12:13:29;79.60;;;36.65;;
54139;SDS011;40046;53.254;5.900;2023-01-25T12:24:15;77.85;;;35.92;;
54139;SDS011;40046;53.254;5.900;2023-01-25T12:26:48;72.30;;;34.42;;
54139;SDS011;40046;53.254;5.900;2023-01-25T12:29:34;73.68;;;35.92;;
54139;SDS011;40046;53.254;5.900;2023-01-25T12:34:50;70.03;;;33.80;;
54139;SDS011;40046;53.254;5.900;2023-01-25T12:37:18;71.45;;;32.22;;
54139;SDS011;40046;53.254;5.900;2023-01-25T12:39:53;74.45;;;37.03;;
54139;SDS011;40046;53.254;5.900;2023-01-25T12:42:23;71.15;;;35.58;;
54139;SDS011;40046;53.254;5.900;2023-01-25T12:44:53;70.63;;;32.28;;
54139;SDS011;40046;53.254;5.900;2023-01-25T12:49:51;76.95;;;34.97;;
54139;SDS011;40046;53.254;5.900;2023-01-25T12:52:32;72.90;;;34.25;;
54139;SDS011;40046;53.254;5.900;2023-01-25T12:55:05;69.70;;;33.70;;
54139;SDS011;40046;53.254;5.900;2023-01-25T12:57:36;67.43;;;33.67;;
54139;SDS011;40046;53.254;5.900;2023-01-25T13:00:15;67.20;;;33.97;;
54139;SDS011;40046;53.254;5.900;2023-01-25T13:10:48;71.65;;;34.95;;
54139;SDS011;40046;53.254;5.900;2023-01-25T13:13:20;66.18;;;31.67;;
54139;SDS011;40046;53.254;5.900;2023-01-25T13:15:46;70.03;;;37.67;;
54139;SDS011;40046;53.254;5.900;2023-01-25T13:20:59;67.40;;;34.83;;
54139;SDS011;40046;53.254;5.900;2023-01-25T13:23:32;69.10;;;32.97;;
54139;SDS011;40046;53.254;5.900;2023-01-25T13:28:44;56.13;;;31.60;;
54139;SDS011;40046;53.254;5.900;2023-01-25T13:31:56;64.88;;;31.40;;
54139;SDS011;40046;53.254;5.900;2023-01-25T13:33:57;61.88;;;33.08;;
54139;SDS011;40046;53.254;5.900;2023-01-25T13:39:51;58.95;;;30.30;;
54139;SDS011;40046;53.254;5.900;2023-01-25T13:42:02;56.22;;;30.08;;
54139;SDS011;40046;53.254;5.900;2023-01-25T13:44:30;63.22;;;34.58;;
54139;SDS011;40046;53.254;5.900;2023-01-25T13:46:58;56.83;;;30.75;;
54139;SDS011;40046;53.254;5.900;2023-01-25T13:49:26;66.15;;;33.92;;
54139;SDS011;40046;53.254;5.900;2023-01-25T13:51:53;62.20;;;34.47;;
54139;SDS011;40046;53.254;5.900;2023-01-25T13:54:19;64.18;;;33.65;;
54139;SDS011;40046;53.254;5.900;2023-01-25T13:56:45;64.38;;;34.15;;
54139;SDS011;40046;53.254;5.900;2023-01-25T13:59:25;61.67;;;34.15;;
54139;SDS011;40046;53.254;5.900;2023-01-25T14:01:51;70.88;;;35.85;;
54139;SDS011;40046;53.254;5.900;2023-01-25T14:04:17;59.17;;;32.92;;
54139;SDS011;40046;53.254;5.900;2023-01-25T14:06:44;62.90;;;33.97;;
54139;SDS011;40046;53.254;5.900;2023-01-25T14:09:11;69.55;;;36.03;;
54139;SDS011;40046;53.254;5.900;2023-01-25T14:11:43;61.65;;;34.85;;
54139;SDS011;40046;53.254;5.900;2023-01-25T14:16:39;58.17;;;32.20;;
54139;SDS011;40046;53.254;5.900;2023-01-25T14:19:24;62.67;;;34.50;;
54139;SDS011;40046;53.254;5.900;2023-01-25T14:25:02;59.40;;;31.13;;
54139;SDS011;40046;53.254;5.900;2023-01-25T14:27:28;60.50;;;33.20;;
54139;SDS011;40046;53.254;5.900;2023-01-25T14:29:55;59.28;;;31.77;;
54139;SDS011;40046;53.254;5.900;2023-01-25T14:32:21;55.17;;;30.80;;
54139;SDS011;40046;53.254;5.900;2023-01-25T14:34:49;63.05;;;34.45;;
54139;SDS011;40046;53.254;5.900;2023-01-25T14:37:16;60.03;;;31.60;;
54139;SDS011;40046;53.254;5.900;2023-01-25T14:39:44;60.97;;;34.45;;
54139;SDS011;40046;53.254;5.900;2023-01-25T14:42:12;55.60;;;32.95;;
54139;SDS011;40046;53.254;5.900;2023-01-25T14:44:39;61.35;;;35.22;;
54139;SDS011;40046;53.254;5.900;2023-01-25T14:49:47;63.22;;;33.38;;
54139;SDS011;40046;53.254;5.900;2023-01-25T14:52:15;61.17;;;32.50;;
54139;SDS011;40046;53.254;5.900;2023-01-25T14:54:52;55.35;;;31.90;;
54139;SDS011;40046;53.254;5.900;2023-01-25T14:59:52;57.63;;;31.70;;
54139;SDS011;40046;53.254;5.900;2023-01-25T15:04:59;63.72;;;33.45;;
54139;SDS011;40046;53.254;5.900;2023-01-25T15:07:33;57.28;;;32.75;;
54139;SDS011;40046;53.254;5.900;2023-01-25T15:10:13;61.92;;;33.47;;
54139;SDS011;40046;53.254;5.900;2023-01-25T15:12:40;62.08;;;31.63;;
54139;SDS011;40046;53.254;5.900;2023-01-25T15:15:16;53.22;;;31.23;;
54139;SDS011;40046;53.254;5.900;2023-01-25T15:17:46;58.38;;;30.63;;
54139;SDS011;40046;53.254;5.900;2023-01-25T15:20:29;66.72;;;36.40;;
54139;SDS011;40046;53.254;5.900;2023-01-25T15:22:58;60.65;;;31.30;;
54139;SDS011;40046;53.254;5.900;2023-01-25T15:25:24;56.63;;;30.05;;
54139;SDS011;40046;53.254;5.900;2023-01-25T15:27:50;65.72;;;34.15;;
54139;SDS011;40046;53.254;5.900;2023-01-25T15:30:17;59.55;;;32.85;;
54139;SDS011;40046;53.254;5.900;2023-01-25T15:32:44;64.90;;;34.30;;
54139;SDS011;40046;53.254;5.900;2023-01-25T15:35:14;64.60;;;36.70;;
54139;SDS011;40046;53.254;5.900;2023-01-25T15:37:42;61.92;;;32.03;;
54139;SDS011;40046;53.254;5.900;2023-01-25T15:40:09;61.08;;;32.40;;
54139;SDS011;40046;53.254;5.900;2023-01-25T15:42:36;71.53;;;36.60;;
54139;SDS011;40046;53.254;5.900;2023-01-25T15:45:02;58.92;;;33.65;;
54139;SDS011;40046;53.254;5.900;2023-01-25T15:47:29;67.38;;;37.47;;
54139;SDS011;40046;53.254;5.900;2023-01-25T15:49:55;62.65;;;34.40;;
54139;SDS011;40046;53.254;5.900;2023-01-25T15:52:21;62.55;;;37.28;;
54139;SDS011;40046;53.254;5.900;2023-01-25T15:54:48;64.40;;;35.13;;
54139;SDS011;40046;53.254;5.900;2023-01-25T15:57:19;68.22;;;34.95;;
54139;SDS011;40046;53.254;5.900;2023-01-25T15:59:48;66.57;;;36.83;;
54139;SDS011;40046;53.254;5.900;2023-01-25T16:02:14;69.20;;;39.13;;
54139;SDS011;40046;53.254;5.900;2023-01-25T16:04:40;71.28;;;39.13;;
54139;SDS011;40046;53.254;5.900;2023-01-25T16:07:08;66.47;;;36.30;;
54139;SDS011;40046;53.254;5.900;2023-01-25T16:09:35;72.10;;;36.45;;
54139;SDS011;40046;53.254;5.900;2023-01-25T16:12:01;67.65;;;37.60;;
54139;SDS011;40046;53.254;5.900;2023-01-25T16:14:28;69.13;;;37.92;;
54139;SDS011;40046;53.254;5.900;2023-01-25T16:16:56;66.78;;;35.13;;
54139;SDS011;40046;53.254;5.900;2023-01-25T16:19:23;73.03;;;36.53;;
54139;SDS011;40046;53.254;5.900;2023-01-25T16:21:49;69.05;;;37.58;;
54139;SDS011;40046;53.254;5.900;2023-01-25T16:24:16;70.97;;;37.42;;
54139;SDS011;40046;53.254;5.900;2023-01-25T16:26:43;66.88;;;36.63;;
54139;SDS011;40046;53.254;5.900;2023-01-25T16:29:10;71.00;;;37.00;;
54139;SDS011;40046;53.254;5.900;2023-01-25T16:31:37;72.35;;;38.10;;